createdAt,value
2023-01-11T00:02:35.252Z,10.22
2023-01-11T00:05:19.188Z,9.84
2023-01-11T00:08:04.859Z,10.17
2023-01-11T00:10:48.678Z,10.00
2023-01-11T00:13:32.918Z,10.19
2023-01-11T00:16:16.676Z,10.35
2023-01-11T00:19:00.528Z,10.38
2023-01-11T00:21:44.327Z,10.55
2023-01-11T00:24:29.902Z,10.39
2023-01-11T00:27:13.912Z,10.46
2023-01-11T00:29:58.000Z,10.54
2023-01-11T00:32:42.095Z,10.81
2023-01-11T00:35:26.713Z,10.89
2023-01-11T00:38:30.699Z,10.54
2023-01-11T00:41:34.908Z,10.31
2023-01-11T00:44:36.743Z,10.61
2023-01-11T00:47:38.201Z,10.15
2023-01-11T00:50:22.194Z,10.41
2023-01-11T00:53:07.083Z,9.83
2023-01-11T00:55:51.103Z,10.34
2023-01-11T00:58:36.648Z,10.34
2023-01-11T01:01:20.568Z,10.07
2023-01-11T01:04:05.111Z,10.26
2023-01-11T01:06:49.154Z,10.28
2023-01-11T01:09:33.257Z,10.68
2023-01-11T01:12:38.648Z,10.72
2023-01-11T01:15:23.314Z,10.57
2023-01-11T01:18:07.458Z,10.54
2023-01-11T01:20:52.045Z,10.77
2023-01-11T01:23:36.029Z,10.73
2023-01-11T01:26:19.942Z,10.53
2023-01-11T01:29:04.007Z,10.46
2023-01-11T01:31:49.479Z,10.29
2023-01-11T01:34:37.505Z,10.36
2023-01-11T01:37:21.550Z,10.22
2023-01-11T01:40:06.774Z,10.69
2023-01-11T01:42:55.206Z,10.48
2023-01-11T01:45:39.250Z,10.40
2023-01-11T01:48:28.183Z,10.32
2023-01-11T01:51:17.877Z,10.80
2023-01-11T01:54:07.512Z,10.13
2023-01-11T01:56:55.069Z,10.37
2023-01-11T01:59:39.412Z,10.71
2023-01-11T02:02:26.581Z,10.59
2023-01-11T02:05:14.210Z,9.77
2023-01-11T02:08:01.934Z,10.34
2023-01-11T02:10:45.916Z,10.40
2023-01-11T02:13:30.583Z,10.36
2023-01-11T02:16:14.802Z,10.39
2023-01-11T02:18:59.806Z,10.20
2023-01-11T02:21:57.972Z,9.94
2023-01-11T02:25:08.570Z,10.33
2023-01-11T02:28:07.119Z,10.31
2023-01-11T02:31:00.524Z,10.17
2023-01-11T02:33:52.909Z,10.22
2023-01-11T02:36:48.520Z,10.63
2023-01-11T02:39:41.562Z,10.46
2023-01-11T02:42:55.399Z,10.57
2023-01-11T02:45:50.118Z,10.76
2023-01-11T02:48:41.225Z,10.63
2023-01-11T02:51:29.829Z,11.06
2023-01-11T02:54:18.787Z,10.40
2023-01-11T02:57:04.146Z,10.87
2023-01-11T02:59:50.103Z,11.00
2023-01-11T03:02:35.300Z,11.37
2023-01-11T03:05:19.136Z,11.05
2023-01-11T03:08:13.408Z,11.20
2023-01-11T03:11:04.754Z,11.06
2023-01-11T03:14:01.557Z,11.38
2023-01-11T03:16:53.277Z,11.37
2023-01-11T03:19:45.235Z,11.36
2023-01-11T03:22:40.393Z,11.33
2023-01-11T03:25:32.219Z,10.93
2023-01-11T03:28:23.782Z,10.66
2023-01-11T03:31:16.528Z,10.85
2023-01-11T03:34:08.200Z,10.78
2023-01-11T03:36:57.491Z,10.38
2023-01-11T03:39:47.420Z,10.63
2023-01-11T03:42:33.701Z,10.71
2023-01-11T03:45:17.849Z,11.01
2023-01-11T03:48:04.336Z,10.36
2023-01-11T03:50:50.712Z,10.23
2023-01-11T03:53:39.027Z,10.53
2023-01-11T03:56:26.543Z,10.65
2023-01-11T03:59:10.346Z,10.56
2023-01-11T04:01:54.866Z,10.59
2023-01-11T04:04:39.113Z,10.89
2023-01-11T04:07:22.929Z,10.74
2023-01-11T04:10:09.890Z,10.89
2023-01-11T04:12:53.679Z,10.85
2023-01-11T04:15:37.419Z,10.82
2023-01-11T04:18:21.380Z,10.55
2023-01-11T04:21:05.665Z,10.54
2023-01-11T04:23:49.450Z,10.64
2023-01-11T04:26:34.787Z,10.49
2023-01-11T04:29:18.585Z,10.59
2023-01-11T04:32:03.711Z,10.64
2023-01-11T04:34:47.563Z,10.82
2023-01-11T04:37:31.337Z,10.56
2023-01-11T04:40:16.219Z,10.57
2023-01-11T04:43:02.475Z,10.58
2023-01-11T04:45:46.321Z,10.55
2023-01-11T04:48:30.081Z,10.71
2023-01-11T04:51:13.845Z,10.38
2023-01-11T04:53:57.789Z,10.43
2023-01-11T04:56:41.704Z,10.60
2023-01-11T04:59:27.244Z,10.32
2023-01-11T05:02:11.168Z,10.63
2023-01-11T05:04:55.246Z,10.43
2023-01-11T05:07:39.469Z,10.55
2023-01-11T05:10:23.468Z,10.72
2023-01-11T05:13:07.318Z,10.76
2023-01-11T05:15:52.571Z,10.76
2023-01-11T05:18:36.737Z,10.65
2023-01-11T05:21:22.976Z,10.77
2023-01-11T05:24:09.129Z,10.94
2023-01-11T05:26:53.397Z,10.82
2023-01-11T05:29:37.246Z,10.84
2023-01-11T05:32:22.642Z,10.87
2023-01-11T05:35:10.162Z,10.79
2023-01-11T05:37:54.249Z,10.65
2023-01-11T05:40:38.341Z,10.75
2023-01-11T05:43:22.367Z,10.61
2023-01-11T05:46:05.634Z,10.91
2023-01-11T05:48:51.360Z,10.73
2023-01-11T05:51:35.816Z,10.62
2023-01-11T05:54:19.782Z,10.37
2023-01-11T05:57:03.831Z,10.49
2023-01-11T05:59:47.813Z,10.26
2023-01-11T06:02:31.916Z,10.20
2023-01-11T06:05:17.662Z,10.18
2023-01-11T06:08:01.744Z,10.43
2023-01-11T06:10:51.650Z,10.16
2023-01-11T06:13:35.860Z,10.51
2023-01-11T06:16:22.311Z,10.67
2023-01-11T06:19:06.542Z,10.56
2023-01-11T06:21:51.975Z,10.59
2023-01-11T06:24:36.178Z,10.67
2023-01-11T06:27:20.170Z,10.38
2023-01-11T06:30:04.456Z,10.64
2023-01-11T06:32:48.668Z,10.39
2023-01-11T06:35:32.834Z,10.66
2023-01-11T06:38:19.804Z,10.70
2023-01-11T06:41:07.293Z,10.66
2023-01-11T06:43:52.532Z,10.89
2023-01-11T06:46:36.547Z,10.84
2023-01-11T06:49:21.035Z,10.72
2023-01-11T06:52:05.271Z,10.85
2023-01-11T06:54:50.792Z,10.84
2023-01-11T06:57:35.008Z,10.78
2023-01-11T07:00:20.173Z,10.72
2023-01-11T07:03:05.398Z,10.87
2023-01-11T07:05:49.527Z,10.85
2023-01-11T07:08:33.557Z,10.88
2023-01-11T07:11:19.288Z,10.85
2023-01-11T07:14:03.403Z,10.81
2023-01-11T07:16:47.440Z,11.01
2023-01-11T07:19:31.640Z,10.92
2023-01-11T07:22:16.334Z,10.99
2023-01-11T07:25:00.326Z,11.20
2023-01-11T07:27:46.070Z,11.17
2023-01-11T07:30:34.411Z,11.47
2023-01-11T07:33:21.736Z,11.50
2023-01-11T07:36:06.699Z,11.24
2023-01-11T07:38:51.001Z,11.64
2023-01-11T07:41:52.210Z,11.70
2023-01-11T07:44:37.776Z,11.77
2023-01-11T07:47:21.796Z,11.78
2023-01-11T07:50:07.063Z,11.28
2023-01-11T07:52:51.288Z,11.83
2023-01-11T07:55:36.039Z,11.91
2023-01-11T07:58:20.295Z,11.78
2023-01-11T08:01:06.571Z,11.89
2023-01-11T08:03:50.743Z,11.95
2023-01-11T08:06:34.460Z,11.93
2023-01-11T08:09:18.282Z,11.90
2023-01-11T08:12:19.560Z,12.02
2023-01-11T08:15:03.578Z,12.17
2023-01-11T08:17:49.018Z,11.95
2023-01-11T08:20:32.988Z,12.35
2023-01-11T08:23:16.831Z,12.31
2023-01-11T08:26:00.572Z,12.46
2023-01-11T08:28:44.560Z,12.44
2023-01-11T08:31:28.621Z,12.04
2023-01-11T08:34:14.210Z,12.08
2023-01-11T08:37:01.982Z,11.76
2023-01-11T08:39:46.059Z,11.35
2023-01-11T08:42:30.089Z,11.29
2023-01-11T08:45:14.036Z,11.30
2023-01-11T08:48:00.373Z,11.36
2023-01-11T08:50:46.188Z,11.24
2023-01-11T08:53:30.275Z,11.24
2023-01-11T08:56:14.843Z,11.62
2023-01-11T08:58:58.827Z,11.28
2023-01-11T09:01:42.959Z,11.27
2023-01-11T09:04:27.068Z,11.52
2023-01-11T09:07:12.489Z,11.50
2023-01-11T09:09:56.536Z,11.64
2023-01-11T09:12:40.535Z,11.43
2023-01-11T09:15:25.194Z,11.20
2023-01-11T09:18:09.183Z,11.26
2023-01-11T09:20:53.208Z,11.11
2023-01-11T09:23:38.435Z,11.46
2023-01-11T09:26:22.250Z,10.72
2023-01-11T09:29:06.199Z,11.29
2023-01-11T09:31:50.013Z,11.28
2023-01-11T09:34:33.746Z,11.46
2023-01-11T09:37:17.614Z,11.57
2023-01-11T09:40:02.761Z,11.61
2023-01-11T09:42:52.671Z,11.26
2023-01-11T09:45:37.351Z,11.12
2023-01-11T09:48:28.959Z,11.15
2023-01-11T09:51:15.968Z,11.03
2023-01-11T09:54:02.175Z,11.04
2023-01-11T09:56:57.826Z,11.17
2023-01-11T09:59:48.747Z,11.00
2023-01-11T10:02:41.719Z,11.16
2023-01-11T10:05:35.829Z,11.06
2023-01-11T10:18:29.965Z,11.23
2023-01-11T10:19:10.391Z,11.14
2023-01-11T10:21:49.853Z,11.48
2023-01-11T10:24:42.263Z,11.23
2023-01-11T10:27:34.312Z,11.11
2023-01-11T10:30:33.707Z,11.32
2023-01-11T10:33:34.342Z,11.29
2023-01-11T10:36:35.500Z,11.19
2023-01-11T10:39:46.625Z,10.80
2023-01-11T10:42:43.765Z,11.01
2023-01-11T10:45:37.444Z,10.79
2023-01-11T10:48:26.778Z,10.80
2023-01-11T10:51:24.627Z,10.87
2023-01-11T10:54:16.732Z,10.81
2023-01-11T10:57:14.084Z,10.75
2023-01-11T11:00:15.428Z,11.11
2023-01-11T11:03:41.004Z,10.90
2023-01-11T11:06:37.126Z,10.81
2023-01-11T11:09:28.516Z,10.85
2023-01-11T11:12:19.470Z,10.77
2023-01-11T11:15:14.820Z,10.73
2023-01-11T11:17:58.704Z,10.56
2023-01-11T11:20:44.210Z,10.53
2023-01-11T11:23:28.866Z,10.83
2023-01-11T11:26:13.753Z,10.68
2023-01-11T11:29:02.586Z,10.88
2023-01-11T11:31:48.595Z,10.73
2023-01-11T11:34:32.712Z,10.70
2023-01-11T11:37:29.135Z,10.80
2023-01-11T11:40:30.161Z,10.41
2023-01-11T11:43:21.790Z,10.51
2023-01-11T11:46:20.161Z,10.63
2023-01-11T11:49:16.934Z,10.65
2023-01-11T11:52:01.979Z,10.62
2023-01-11T11:54:52.926Z,10.30
2023-01-11T11:57:42.846Z,10.33
2023-01-11T12:00:28.757Z,10.44
2023-01-11T12:03:18.033Z,10.45
2023-01-11T12:06:07.520Z,10.57
2023-01-11T12:08:51.694Z,10.44
2023-01-11T12:11:38.776Z,10.50
2023-01-11T12:14:26.799Z,10.51
2023-01-11T12:17:25.725Z,10.50
2023-01-11T12:20:40.691Z,10.45
2023-01-11T12:23:27.291Z,10.40
2023-01-11T12:26:21.374Z,10.44
2023-01-11T12:29:23.187Z,10.47
2023-01-11T12:32:17.692Z,10.53
2023-01-11T12:35:26.413Z,10.47
2023-01-11T12:38:24.349Z,10.57
2023-01-11T12:41:50.307Z,10.40
2023-01-11T12:44:55.867Z,10.36
2023-01-11T12:47:55.217Z,10.45
2023-01-11T12:51:01.528Z,10.47
2023-01-11T12:54:07.887Z,10.43
2023-01-11T12:57:07.549Z,10.24
2023-01-11T13:00:18.052Z,10.26
2023-01-11T13:03:43.420Z,10.40
2023-01-11T13:06:36.190Z,10.14
2023-01-11T13:09:31.692Z,10.26
2023-01-11T13:12:23.324Z,10.14
2023-01-11T13:15:21.505Z,10.00
2023-01-11T13:18:18.578Z,10.02
2023-01-11T13:21:11.675Z,9.70
2023-01-11T13:24:00.213Z,9.86
2023-01-11T13:26:49.713Z,9.95
2023-01-11T13:29:41.905Z,9.98
2023-01-11T13:32:31.062Z,9.93
2023-01-11T13:35:19.232Z,10.04
2023-01-11T13:38:10.437Z,10.23
2023-01-11T13:40:58.751Z,10.36
2023-01-11T13:43:48.914Z,10.47
2023-01-11T13:46:47.189Z,10.24
2023-01-11T13:49:42.587Z,10.41
2023-01-11T13:52:43.275Z,10.44
2023-01-11T13:55:32.002Z,10.31
2023-01-11T13:58:23.411Z,10.07
2023-01-11T14:01:11.817Z,10.20
2023-01-11T14:04:01.301Z,10.10
2023-01-11T14:07:04.977Z,9.83
2023-01-11T14:10:01.484Z,10.29
2023-01-11T14:13:12.307Z,10.17
2023-01-11T14:16:03.799Z,10.11
2023-01-11T14:18:54.170Z,10.05
2023-01-11T14:21:47.486Z,10.02
2023-01-11T14:24:36.622Z,9.93
2023-01-11T14:27:43.526Z,10.02
2023-01-11T14:30:39.401Z,10.01
2023-01-11T14:33:45.734Z,10.01
2023-01-11T14:36:58.538Z,9.74
2023-01-11T14:40:20.173Z,9.64
2023-01-11T14:43:38.249Z,9.56
2023-01-11T14:47:01.589Z,9.75
2023-01-11T14:50:03.465Z,9.33
2023-01-11T14:52:52.014Z,9.32
2023-01-11T14:55:45.184Z,9.43
2023-01-11T14:58:31.609Z,9.45
2023-01-11T15:01:15.724Z,9.52
2023-01-11T15:03:59.799Z,9.62
2023-01-11T15:06:55.398Z,9.10
2023-01-11T15:09:50.241Z,9.68
2023-01-11T15:12:37.147Z,9.79
2023-01-11T15:15:22.803Z,9.49
2023-01-11T15:18:18.465Z,9.46
2023-01-11T15:21:06.741Z,9.22
2023-01-11T15:23:55.697Z,9.53
2023-01-11T15:26:50.165Z,9.67
2023-01-11T15:29:36.909Z,9.96
2023-01-11T15:32:27.405Z,9.46
2023-01-11T15:35:19.849Z,9.84
2023-01-11T15:38:14.021Z,9.55
2023-01-11T15:41:20.237Z,9.48
2023-01-11T15:44:30.388Z,9.43
2023-01-11T15:47:32.128Z,9.60
2023-01-11T15:50:45.223Z,9.58
2023-01-11T15:54:00.491Z,9.35
2023-01-11T15:57:12.223Z,9.52
2023-01-11T16:00:37.801Z,9.68
2023-01-11T16:03:38.997Z,9.67
2023-01-11T16:06:33.747Z,9.42
2023-01-11T16:09:45.872Z,9.59
2023-01-11T16:12:51.038Z,9.62
2023-01-11T16:15:49.576Z,9.46
2023-01-11T16:18:41.901Z,9.42
2023-01-11T16:21:33.774Z,9.17
2023-01-11T16:24:20.450Z,9.22
2023-01-11T16:27:05.679Z,9.33
2023-01-11T16:29:51.811Z,9.26
2023-01-11T16:32:35.600Z,9.54
2023-01-11T16:35:23.698Z,9.42
2023-01-11T16:38:15.681Z,9.27
2023-01-11T16:41:00.874Z,9.27
2023-01-11T16:43:51.419Z,9.32
2023-01-11T16:47:07.820Z,9.46
2023-01-11T16:50:18.928Z,9.22
2023-01-11T16:53:05.087Z,9.27
2023-01-11T16:55:57.421Z,9.39
2023-01-11T16:58:41.609Z,9.46
2023-01-11T17:01:25.473Z,9.47
2023-01-11T17:04:27.434Z,9.36
2023-01-11T17:07:14.618Z,9.13
2023-01-11T17:10:17.402Z,9.02
2023-01-11T17:13:35.296Z,8.98
2023-01-11T17:16:21.073Z,9.13
2023-01-11T17:19:10.082Z,9.19
2023-01-11T17:21:55.777Z,9.05
2023-01-11T17:24:43.300Z,9.04
2023-01-11T17:27:33.180Z,9.04
2023-01-11T17:30:20.527Z,9.12
2023-01-11T17:33:04.433Z,9.09
2023-01-11T17:35:48.410Z,9.35
2023-01-11T17:38:32.963Z,9.15
2023-01-11T17:41:31.883Z,9.02
2023-01-11T17:44:42.167Z,9.13
2023-01-11T17:47:26.450Z,9.06
2023-01-11T17:50:25.168Z,8.87
2023-01-11T17:53:17.361Z,8.88
2023-01-11T17:56:03.073Z,8.97
2023-01-11T17:58:46.733Z,8.91
2023-01-11T18:01:32.150Z,9.07
2023-01-11T18:04:20.904Z,9.10
2023-01-11T18:07:11.168Z,9.17
2023-01-11T18:10:03.185Z,9.17
2023-01-11T18:12:48.198Z,9.19
2023-01-11T18:15:35.100Z,9.12
2023-01-11T18:18:42.680Z,9.21
2023-01-11T18:21:40.855Z,9.03
2023-01-11T18:24:46.115Z,9.31
2023-01-11T18:27:32.359Z,9.17
2023-01-11T18:30:38.154Z,9.27
2023-01-11T18:33:24.059Z,9.06
2023-01-11T18:36:21.261Z,8.99
2023-01-11T18:39:12.009Z,9.10
2023-01-11T18:42:16.344Z,9.04
2023-01-11T18:45:00.414Z,9.04
2023-01-11T18:47:44.438Z,9.02
2023-01-11T18:50:28.906Z,9.14
2023-01-11T18:53:15.496Z,8.97
2023-01-11T18:55:59.839Z,8.87
2023-01-11T18:58:43.962Z,8.95
2023-01-11T19:01:30.502Z,9.03
2023-01-11T19:04:18.662Z,8.97
2023-01-11T19:07:03.212Z,9.00
2023-01-11T19:09:48.787Z,8.95
2023-01-11T19:12:33.193Z,8.89
2023-01-11T19:15:18.226Z,8.83
2023-01-11T19:18:04.459Z,8.85
2023-01-11T19:20:49.629Z,8.76
2023-01-11T19:23:35.002Z,8.96
2023-01-11T19:26:24.597Z,8.49
2023-01-11T19:29:09.453Z,8.76
2023-01-11T19:31:56.709Z,8.87
2023-01-11T19:34:41.775Z,8.85
2023-01-11T19:37:26.407Z,8.68
2023-01-11T19:40:13.071Z,8.87
2023-01-11T19:43:00.576Z,8.77
2023-01-11T19:45:46.264Z,8.84
2023-01-11T19:48:33.637Z,8.72
2023-01-11T19:51:17.705Z,8.78
2023-01-11T19:54:02.196Z,8.64
2023-01-11T19:56:47.554Z,8.67
2023-01-11T19:59:33.770Z,8.35
2023-01-11T20:02:21.636Z,8.33
2023-01-11T20:05:07.711Z,8.57
2023-01-11T20:07:51.705Z,8.59
2023-01-11T20:10:36.225Z,8.56
2023-01-11T20:13:20.266Z,8.46
2023-01-11T20:16:09.099Z,8.54
2023-01-11T20:18:53.904Z,8.55
2023-01-11T20:21:37.851Z,8.55
2023-01-11T20:24:28.154Z,8.49
2023-01-11T20:27:12.105Z,8.61
2023-01-11T20:29:56.091Z,8.57
2023-01-11T20:32:42.599Z,8.59
2023-01-11T20:35:27.763Z,8.57
2023-01-11T20:38:12.006Z,8.61
2023-01-11T20:40:56.243Z,8.70
2023-01-11T20:43:40.884Z,8.63
2023-01-11T20:46:25.151Z,8.72
2023-01-11T20:49:10.578Z,8.59
2023-01-11T20:51:54.755Z,8.65
2023-01-11T20:54:38.548Z,8.72
2023-01-11T20:57:22.476Z,8.66
2023-01-11T21:02:53.713Z,8.79
2023-01-11T21:05:39.721Z,8.75
2023-01-11T21:08:23.779Z,9.32
2023-01-11T21:11:08.945Z,9.13
2023-01-11T21:13:53.971Z,9.70
2023-01-11T21:16:37.756Z,9.50
2023-01-11T21:19:21.554Z,9.64
2023-01-11T21:22:06.895Z,9.39
2023-01-11T21:24:50.725Z,9.67
2023-01-11T21:27:34.626Z,9.75
2023-01-11T21:30:19.087Z,9.72
2023-01-11T21:33:02.803Z,9.69
2023-01-11T21:35:46.716Z,9.31
2023-01-11T21:38:32.939Z,9.07
2023-01-11T21:41:19.372Z,8.76
2023-01-11T21:44:03.237Z,8.74
2023-01-11T21:46:47.578Z,8.35
2023-01-11T21:49:31.544Z,8.52
2023-01-11T21:52:15.488Z,8.51
2023-01-11T21:55:01.761Z,8.35
2023-01-11T21:57:47.295Z,8.47
2023-01-11T22:00:31.642Z,8.37
2023-01-11T22:03:15.446Z,8.28
2023-01-11T22:06:01.809Z,8.36
2023-01-11T22:08:46.582Z,8.18
2023-01-11T22:11:33.203Z,8.23
2023-01-11T22:14:16.982Z,8.22
2023-01-11T22:17:02.529Z,8.02
2023-01-11T22:19:48.105Z,8.15
2023-01-11T22:22:32.112Z,7.96
2023-01-11T22:25:16.206Z,8.00
2023-01-11T22:28:01.510Z,8.00
2023-01-11T22:30:45.454Z,7.85
2023-01-11T22:33:29.293Z,8.00
2023-01-11T22:36:14.233Z,7.95
2023-01-11T22:38:58.657Z,7.98
2023-01-11T22:41:45.574Z,8.09
2023-01-11T22:44:31.058Z,8.15
2023-01-11T22:47:14.934Z,8.13
2023-01-11T22:49:58.923Z,8.11
2023-01-11T22:52:42.852Z,7.94
2023-01-11T22:55:26.773Z,8.09
2023-01-11T22:58:10.715Z,7.98
2023-01-11T23:00:56.044Z,8.15
2023-01-11T23:03:40.746Z,7.34
2023-01-11T23:06:26.649Z,7.41
2023-01-11T23:09:16.039Z,7.83
2023-01-11T23:12:17.493Z,7.73
2023-01-11T23:15:01.369Z,7.64
2023-01-11T23:17:49.389Z,7.64
2023-01-11T23:20:35.490Z,7.35
2023-01-11T23:23:19.318Z,7.63
2023-01-11T23:26:03.285Z,7.50
2023-01-11T23:28:47.269Z,7.54
2023-01-11T23:31:31.181Z,7.41
2023-01-11T23:34:16.762Z,7.47
2023-01-11T23:37:00.658Z,7.62
2023-01-11T23:39:44.664Z,7.36
2023-01-11T23:42:27.578Z,7.50
2023-01-11T23:45:12.222Z,7.31
2023-01-11T23:47:55.142Z,7.38
2023-01-11T23:50:40.399Z,7.23
2023-01-11T23:53:24.343Z,7.48
2023-01-11T23:56:09.188Z,7.35
2023-01-11T23:58:53.297Z,7.39
